Time;durP1;ratioP1;P1;durP2;ratioP2;P2;SDS_P1;SDS_P2;PMS_P1;PMS_P2;Temp;Humidity;BMP_temperature;BMP_pressure;BME280_temperature;BME280_humidity;BME280_pressure;Samples;Min_cycle;Max_cycle;Signal;HPM_P1;HPM_P2
2022/05/23 00:02:09;;;;;;;10.03;2.43;;;;;;;18.75;nan;101429.41;4846051;29;20459;-86
2022/05/23 00:04:36;;;;;;;5.87;2.17;;;;;;;18.79;nan;101424.25;4815818;29;20519;-85
2022/05/23 00:07:22;;;;;;;13.53;2.60;;;;;;;18.87;nan;101444.16;4830406;29;20476;-85
2022/05/23 00:09:50;;;;;;;6.50;1.77;;;;;;;18.85;nan;101431.66;4796251;29;20498;-86
2022/05/23 00:12:18;;;;;;;6.47;2.17;;;;;;;18.78;nan;101428.94;4805125;29;20459;-87
2022/05/23 00:14:46;;;;;;;6.53;2.50;;;;;;;18.80;nan;101432.34;4790581;29;20447;-86
2022/05/23 00:17:13;;;;;;;10.63;2.40;;;;;;;18.82;nan;101437.66;4789874;29;20988;-85
2022/05/23 00:19:41;;;;;;;9.43;2.27;;;;;;;18.67;nan;101423.31;4790270;29;20972;-86
2022/05/23 00:22:09;;;;;;;5.23;2.67;;;;;;;18.70;nan;101436.69;4775300;29;20514;-85
2022/05/23 00:24:36;;;;;;;10.23;2.80;;;;;;;18.69;nan;101426.69;4789898;29;20455;-85
2022/05/23 00:27:06;;;;;;;9.93;2.83;;;;;;;18.72;nan;101434.56;4789778;29;20462;-85
2022/05/23 00:29:35;;;;;;;8.23;2.47;;;;;;;18.70;nan;101439.47;4789637;29;20523;-86
2022/05/23 00:37:38;;;;;;;8.93;2.80;;;;;;;18.69;nan;101418.38;4762035;30;20443;-86
2022/05/23 00:40:06;;;;;;;6.90;2.10;;;;;;;18.67;nan;101424.16;4771937;30;20463;-86
2022/05/23 00:45:19;;;;;;;10.20;3.17;;;;;;;18.68;nan;101430.53;4760206;30;20962;-86
2022/05/23 00:47:49;;;;;;;10.53;3.23;;;;;;;18.61;nan;101417.63;4753934;30;20459;-86
2022/05/23 00:50:17;;;;;;;10.17;2.50;;;;;;;18.59;nan;101414.25;4752596;30;20557;-86
2022/05/23 00:52:52;;;;;;;18.70;2.87;;;;;;;18.65;nan;101414.41;4768873;30;20523;-86
2022/05/23 00:55:25;;;;;;;5.63;2.10;;;;;;;18.56;nan;101403.59;4797917;29;20477;-85
2022/05/23 00:57:55;;;;;;;7.17;1.90;;;;;;;18.60;nan;101404.03;4829745;29;20861;-86
2022/05/23 01:00:23;;;;;;;11.43;3.20;;;;;;;18.63;nan;101398.03;4845370;29;20455;-87
2022/05/23 01:02:53;;;;;;;10.07;2.70;;;;;;;18.67;nan;101396.47;4829752;29;20519;-87
2022/05/23 01:05:21;;;;;;;9.47;2.90;;;;;;;18.62;nan;101402.72;4844950;29;20467;-86
2022/05/23 01:07:49;;;;;;;12.03;2.67;;;;;;;18.51;nan;101386.81;4829896;29;20506;-86
2022/05/23 01:10:19;;;;;;;10.07;3.13;;;;;;;18.53;nan;101403.22;4812083;29;20796;-85
2022/05/23 01:12:47;;;;;;;10.07;2.30;;;;;;;18.51;nan;101400.66;4844724;29;20955;-85
2022/05/23 01:15:43;;;;;;;14.47;3.30;;;;;;;18.53;nan;101392.97;4817374;29;21028;-85
2022/05/23 01:18:10;;;;;;;4.83;2.40;;;;;;;18.54;nan;101397.44;4843696;29;20968;-85
2022/05/23 01:20:38;;;;;;;10.30;2.90;;;;;;;18.53;nan;101395.75;4829819;29;20455;-85
2022/05/23 01:23:52;;;;;;;6.43;2.40;;;;;;;18.54;nan;101405.75;4844135;29;20498;-85
2022/05/23 01:26:20;;;;;;;13.50;2.40;;;;;;;18.53;nan;101392.97;4839576;29;20527;-85
2022/05/23 01:28:48;;;;;;;14.30;2.90;;;;;;;18.56;nan;101398.06;4844551;29;20878;-85
2022/05/23 01:31:16;;;;;;;8.27;2.80;;;;;;;18.63;nan;101398.03;4829437;29;20474;-85
2022/05/23 01:33:44;;;;;;;10.17;2.53;;;;;;;18.62;nan;101393.56;4829616;29;20452;-85
2022/05/23 01:36:12;;;;;;;9.47;2.60;;;;;;;18.57;nan;101394.22;4814368;29;21021;-85
2022/05/23 01:38:40;;;;;;;9.80;2.17;;;;;;;18.58;nan;101384.84;4826657;29;20877;-86
2022/05/23 01:41:09;;;;;;;10.73;3.00;;;;;;;18.61;nan;101392.72;4833415;29;20459;-85
2022/05/23 01:43:37;;;;;;;7.60;2.63;;;;;;;18.52;nan;101379.38;4843262;29;20479;-85
2022/05/23 01:46:04;;;;;;;12.13;2.93;;;;;;;18.58;nan;101379.31;4844568;29;20455;-86
2022/05/23 01:48:32;;;;;;;8.20;2.50;;;;;;;18.62;nan;101379.72;4842743;29;20539;-86
2022/05/23 01:50:59;;;;;;;7.17;2.70;;;;;;;18.55;nan;101370.59;4829626;29;20470;-86
2022/05/23 01:53:28;;;;;;;6.23;2.83;;;;;;;18.54;nan;101380.84;4813842;29;20454;-86
2022/05/23 01:55:58;;;;;;;9.77;2.53;;;;;;;18.47;nan;101363.44;4844741;29;20451;-85
2022/05/23 02:01:14;;;;;;;15.83;3.07;;;;;;;18.47;nan;101362.63;4860632;29;20457;-86
2022/05/23 02:03:43;;;;;;;13.00;3.17;;;;;;;18.57;nan;101361.00;4829915;29;20495;-85
2022/05/23 02:06:11;;;;;;;11.43;3.00;;;;;;;18.57;nan;101360.16;4844076;29;20516;-85
2022/05/23 02:08:39;;;;;;;9.13;3.17;;;;;;;18.53;nan;101358.91;4844343;29;20460;-85
2022/05/23 02:11:06;;;;;;;12.43;3.33;;;;;;;18.55;nan;101356.75;4829067;29;20974;-86
2022/05/23 02:13:43;;;;;;;14.40;3.10;;;;;;;18.56;nan;101359.31;4860488;29;20940;-85
2022/05/23 02:16:10;;;;;;;11.57;2.77;;;;;;;18.38;nan;101328.84;4844537;29;20455;-86
2022/05/23 02:18:38;;;;;;;8.50;2.77;;;;;;;18.50;nan;101346.38;4858747;29;20495;-85
2022/05/23 02:21:06;;;;;;;11.93;3.40;;;;;;;18.55;nan;101338.22;4813767;29;20448;-86
2022/05/23 02:23:36;;;;;;;10.50;2.90;;;;;;;18.47;nan;101341.28;4829050;29;20491;-85
2022/05/23 02:26:04;;;;;;;7.77;2.67;;;;;;;18.41;nan;101333.94;4829598;29;20459;-85
2022/05/23 02:28:32;;;;;;;10.97;2.87;;;;;;;18.38;nan;101339.94;4829087;29;20459;-86
2022/05/23 02:30:59;;;;;;;8.60;3.03;;;;;;;18.33;nan;101331.47;4817102;29;20883;-85
2022/05/23 02:33:27;;;;;;;16.30;3.00;;;;;;;18.38;nan;101320.56;4814117;29;20449;-85
2022/05/23 02:35:54;;;;;;;7.57;2.80;;;;;;;18.42;nan;101324.56;4856350;29;20472;-85
2022/05/23 02:38:22;;;;;;;11.83;3.57;;;;;;;18.43;nan;101331.78;4847521;29;20447;-86
2022/05/23 02:40:49;;;;;;;12.10;3.37;;;;;;;18.39;nan;101333.31;4832079;29;20868;-85
2022/05/23 02:43:17;;;;;;;13.17;2.80;;;;;;;18.34;nan;101327.63;4817388;29;20978;-85
2022/05/23 02:45:45;;;;;;;5.33;2.03;;;;;;;18.35;nan;101337.63;4832050;29;20459;-85
2022/05/23 02:48:13;;;;;;;7.77;2.70;;;;;;;18.31;nan;101328.09;4863645;29;20462;-85
2022/05/23 02:50:41;;;;;;;6.83;2.07;;;;;;;18.27;nan;101332.41;4816959;29;20468;-86
2022/05/23 02:53:09;;;;;;;15.07;2.60;;;;;;;18.23;nan;101339.47;4861988;29;20451;-85
2022/05/23 02:55:37;;;;;;;10.57;2.37;;;;;;;18.31;nan;101336.38;4831131;29;20518;-86
2022/05/23 02:58:07;;;;;;;8.63;2.70;;;;;;;18.27;nan;101333.25;4863075;29;20468;-86
2022/05/23 03:00:35;;;;;;;13.53;2.60;;;;;;;18.28;nan;101331.31;4847484;29;20482;-86
2022/05/23 03:03:02;;;;;;;8.70;3.17;;;;;;;18.34;nan;101338.69;4830521;29;20463;-85
2022/05/23 03:05:51;;;;;;;7.40;2.50;;;;;;;18.31;nan;101339.16;4817127;29;20479;-86
2022/05/23 03:08:21;;;;;;;8.17;2.53;;;;;;;18.22;nan;101330.31;4846750;29;20877;-86
2022/05/23 03:10:51;;;;;;;11.40;3.27;;;;;;;18.21;nan;101323.09;4791425;29;20903;-86
2022/05/23 03:13:19;;;;;;;8.00;2.30;;;;;;;18.30;nan;101320.84;4806192;29;20555;-86
2022/05/23 03:15:47;;;;;;;11.63;2.77;;;;;;;18.31;nan;101328.09;4776134;29;20921;-86
2022/05/23 03:18:19;;;;;;;8.60;2.97;;;;;;;18.21;nan;101311.19;4777221;29;20470;-86
2022/05/23 03:20:46;;;;;;;12.60;3.17;;;;;;;18.28;nan;101320.22;4791154;29;20458;-86
2022/05/23 03:29:00;;;;;;;9.30;3.13;;;;;;;18.22;nan;101305.41;4804247;29;20444;-86
2022/05/23 03:31:28;;;;;;;7.07;3.20;;;;;;;18.22;nan;101296.28;4831486;29;20528;-86
2022/05/23 03:33:56;;;;;;;10.80;2.80;;;;;;;18.24;nan;101296.88;4827788;29;20836;-86
2022/05/23 03:36:23;;;;;;;12.50;4.10;;;;;;;18.27;nan;101296.44;4862689;29;20459;-85
2022/05/23 03:38:52;;;;;;;13.50;3.60;;;;;;;18.18;nan;101292.28;4827980;29;20464;-85
2022/05/23 03:41:20;;;;;;;9.60;2.90;;;;;;;18.13;nan;101281.88;4851854;29;20451;-86
2022/05/23 03:43:47;;;;;;;8.93;3.10;;;;;;;18.12;nan;101287.66;4815750;29;20487;-86
2022/05/23 03:46:15;;;;;;;11.70;3.47;;;;;;;18.19;nan;101274.59;4846126;29;20448;-86
2022/05/23 03:48:43;;;;;;;8.17;2.40;;;;;;;18.20;nan;101293.72;4846026;29;20863;-87
2022/05/23 03:51:11;;;;;;;7.00;2.77;;;;;;;18.18;nan;101295.88;4831372;29;20946;-87
2022/05/23 03:53:39;;;;;;;6.07;3.03;;;;;;;18.18;nan;101301.41;4845800;29;20985;-88
2022/05/23 03:56:07;;;;;;;6.70;2.13;;;;;;;18.16;nan;101292.50;4831262;29;20491;-88
2022/05/23 03:58:35;;;;;;;13.23;3.37;;;;;;;18.12;nan;101284.88;4846086;29;20455;-87
2022/05/23 04:01:13;;;;;;;6.83;2.87;;;;;;;18.11;nan;101284.03;4846594;29;20459;-87
2022/05/23 04:03:40;;;;;;;9.47;3.03;;;;;;;18.10;nan;101290.63;4825896;29;20484;-87
2022/05/23 04:06:08;;;;;;;10.37;3.13;;;;;;;18.06;nan;101280.28;4827433;29;20487;-87
2022/05/23 04:08:36;;;;;;;15.27;2.87;;;;;;;18.18;nan;101279.28;4827483;29;20456;-87
2022/05/23 04:11:04;;;;;;;6.53;2.20;;;;;;;18.02;nan;101266.06;4827524;29;20468;-88
2022/05/23 04:13:32;;;;;;;11.73;2.80;;;;;;;18.06;nan;101270.06;4833831;29;20951;-87
2022/05/23 04:15:59;;;;;;;16.47;3.20;;;;;;;18.06;nan;101270.06;4830512;29;20447;-88
2022/05/23 04:18:28;;;;;;;7.97;2.53;;;;;;;18.03;nan;101261.38;4830852;29;20911;-87
2022/05/23 04:21:01;;;;;;;13.20;2.80;;;;;;;18.12;nan;101271.06;4861540;29;20467;-88
2022/05/23 04:23:30;;;;;;;11.63;3.67;;;;;;;18.13;nan;101275.50;4812453;29;20495;-87
2022/05/23 04:26:06;;;;;;;8.63;2.70;;;;;;;18.12;nan;101268.28;4790494;29;21065;-88
2022/05/23 04:28:36;;;;;;;10.87;2.73;;;;;;;18.13;nan;101269.97;4813428;29;20453;-88
2022/05/23 04:31:04;;;;;;;9.77;2.30;;;;;;;18.19;nan;101263.53;4811330;29;20459;-88
2022/05/23 04:36:17;;;;;;;9.40;2.33;;;;;;;18.12;nan;101265.53;4810274;29;20449;-87
2022/05/23 04:38:45;;;;;;;9.20;2.37;;;;;;;18.16;nan;101263.97;4822854;29;20557;-87
2022/05/23 04:41:12;;;;;;;18.70;2.40;;;;;;;18.12;nan;101269.13;4793134;29;20459;-88
2022/05/23 04:43:43;;;;;;;8.93;2.30;;;;;;;18.23;nan;101264.75;4804518;29;20558;-88
2022/05/23 04:46:12;;;;;;;14.57;3.57;;;;;;;18.19;nan;101258.84;4860435;29;20942;-88
2022/05/23 04:51:25;;;;;;;9.17;2.57;;;;;;;18.03;nan;101247.56;4847692;29;20460;-88
2022/05/23 04:53:53;;;;;;;11.20;3.10;;;;;;;18.00;nan;101248.84;4860208;29;20459;-88
2022/05/23 04:56:22;;;;;;;10.50;2.73;;;;;;;18.09;nan;101260.47;4843799;29;20499;-87
2022/05/23 04:58:50;;;;;;;8.13;2.67;;;;;;;18.11;nan;101248.06;4830394;29;20456;-88
2022/05/23 05:01:17;;;;;;;7.70;2.80;;;;;;;18.13;nan;101256.13;4815191;29;20444;-88
2022/05/23 05:03:45;;;;;;;7.00;2.73;;;;;;;18.12;nan;101255.28;4844731;29;20486;-88
2022/05/23 05:06:13;;;;;;;11.97;2.57;;;;;;;18.11;nan;101244.47;4814928;29;20543;-87
2022/05/23 05:08:41;;;;;;;7.73;2.00;;;;;;;17.98;nan;101233.56;4814596;29;20459;-88
2022/05/23 05:11:08;;;;;;;12.20;2.60;;;;;;;18.03;nan;101236.50;4830060;29;20818;-88
2022/05/23 05:13:38;;;;;;;14.00;3.07;;;;;;;18.04;nan;101235.41;4829677;29;20834;-88
2022/05/23 05:16:06;;;;;;;12.97;2.40;;;;;;;18.07;nan;101243.25;4859992;29;21060;-87
2022/05/23 05:18:34;;;;;;;13.37;2.80;;;;;;;18.09;nan;101232.81;4829462;29;20463;-88
2022/05/23 05:21:10;;;;;;;10.70;2.23;;;;;;;18.09;nan;101238.34;4814707;29;20535;-88
2022/05/23 05:23:38;;;;;;;9.90;2.90;;;;;;;18.04;nan;101233.50;4844666;29;20938;-88
2022/05/23 05:26:06;;;;;;;12.00;3.00;;;;;;;18.06;nan;101236.88;4844861;29;20447;-87
2022/05/23 05:28:34;;;;;;;7.07;2.43;;;;;;;18.09;nan;101232.81;4814727;29;20518;-87
2022/05/23 05:31:11;;;;;;;7.77;2.00;;;;;;;18.10;nan;101242.75;4843207;29;20467;-87
2022/05/23 05:33:41;;;;;;;10.80;2.37;;;;;;;18.01;nan;101236.72;4815200;29;20463;-88
2022/05/23 05:36:13;;;;;;;10.67;3.03;;;;;;;17.97;nan;101238.25;4844040;29;20460;-87
2022/05/23 05:38:44;;;;;;;11.40;2.60;;;;;;;18.07;nan;101246.03;4826299;29;20453;-88
2022/05/23 05:41:19;;;;;;;11.50;2.77;;;;;;;18.07;nan;101249.63;4856392;29;20454;-87
2022/05/23 05:43:50;;;;;;;6.80;2.80;;;;;;;18.02;nan;101245.84;4826443;29;20459;-87
2022/05/23 05:46:22;;;;;;;10.37;3.10;;;;;;;18.05;nan;101250.94;4844328;29;20451;-87
2022/05/23 05:48:50;;;;;;;9.57;2.30;;;;;;;18.05;nan;101259.25;4814417;29;20467;-88
2022/05/23 05:51:21;;;;;;;11.80;3.30;;;;;;;18.02;nan;101265.22;4844223;29;20462;-87
2022/05/23 05:53:49;;;;;;;8.43;2.53;;;;;;;18.04;nan;101265.84;4844480;29;20467;-87
2022/05/23 05:56:17;;;;;;;11.60;2.80;;;;;;;18.07;nan;101265.38;4829316;29;20451;-87
2022/05/23 05:58:44;;;;;;;9.37;2.40;;;;;;;18.05;nan;101264.78;4814300;29;21037;-87
2022/05/23 06:01:14;;;;;;;10.97;2.30;;;;;;;17.99;nan;101263.75;4829172;29;20459;-87
2022/05/23 06:03:41;;;;;;;11.50;2.60;;;;;;;18.04;nan;101254.78;4860738;29;20973;-88
2022/05/23 06:11:44;;;;;;;5.83;2.90;;;;;;;18.17;nan;101243.53;4850570;29;20833;-87
2022/05/23 06:14:12;;;;;;;17.73;4.17;;;;;;;18.20;nan;101262.44;4847900;29;20447;-87
2022/05/23 06:16:40;;;;;;;10.90;4.10;;;;;;;18.28;nan;101262.13;4832988;29;20451;-88
2022/05/23 06:19:08;;;;;;;11.80;5.43;;;;;;;18.29;nan;101241.66;4817378;29;20946;-88
2022/05/23 06:21:35;;;;;;;13.83;5.37;;;;;;;18.29;nan;101248.06;4832490;29;20462;-87
2022/05/23 06:24:04;;;;;;;17.03;6.37;;;;;;;18.20;nan;101237.56;4832480;29;20486;-87
2022/05/23 06:26:32;;;;;;;17.33;6.13;;;;;;;18.23;nan;101242.63;4847928;29;20451;-88
2022/05/23 06:29:01;;;;;;;14.63;6.70;;;;;;;18.23;nan;101243.47;4832301;29;20459;-87
2022/05/23 06:31:29;;;;;;;14.30;5.00;;;;;;;18.18;nan;101229.47;4829014;29;20464;-87
2022/05/23 06:33:56;;;;;;;18.97;5.30;;;;;;;18.29;nan;101236.13;4829664;29;20496;-87
2022/05/23 06:36:24;;;;;;;11.33;5.90;;;;;;;18.43;nan;101243.22;4817628;29;20463;-88
2022/05/23 06:38:54;;;;;;;13.47;5.90;;;;;;;18.50;nan;101238.41;4832336;29;20459;-89
2022/05/23 06:41:22;;;;;;;27.40;6.83;;;;;;;18.60;nan;101238.75;4849789;29;20466;-87
2022/05/23 06:43:49;;;;;;;16.73;6.00;;;;;;;18.64;nan;101241.91;4817187;29;20946;-87
2022/05/23 06:46:17;;;;;;;9.27;5.90;;;;;;;18.70;nan;101237.31;4831828;29;20502;-88
2022/05/23 06:48:45;;;;;;;11.77;5.40;;;;;;;18.74;nan;101244.06;4832061;29;20466;-88
2022/05/23 06:51:14;;;;;;;11.97;5.37;;;;;;;18.77;nan;101235.31;4832384;29;20458;-88
2022/05/23 06:53:41;;;;;;;11.73;4.70;;;;;;;18.79;nan;101235.91;4817056;29;20459;-88
2022/05/23 06:56:09;;;;;;;17.87;4.33;;;;;;;18.83;nan;101237.13;4846952;29;20791;-88
2022/05/23 06:58:36;;;;;;;13.40;4.53;;;;;;;18.91;nan;101234.84;4830469;29;20530;-88
2022/05/23 07:01:04;;;;;;;15.30;4.23;;;;;;;19.02;nan;101224.91;4832061;29;20462;-88
2022/05/23 07:03:31;;;;;;;12.90;4.63;;;;;;;19.03;nan;101226.59;4863037;29;20452;-88
2022/05/23 07:14:22;;;;;;;18.27;5.93;;;;;;;19.22;nan;101241.19;4844302;29;20447;-88
2022/05/23 07:16:51;;;;;;;19.87;5.00;;;;;;;19.22;nan;101225.41;4831988;29;20863;-88
2022/05/23 07:19:18;;;;;;;17.53;4.57;;;;;;;19.30;nan;101244.44;4831415;29;20470;-88
2022/05/23 07:21:47;;;;;;;20.27;4.90;;;;;;;19.41;nan;101236.41;4831117;29;20459;-87
2022/05/23 07:24:17;;;;;;;20.93;5.03;;;;;;;19.42;nan;101246.41;4862911;29;20480;-88
2022/05/23 07:26:44;;;;;;;27.40;6.20;;;;;;;19.48;nan;101245.44;4846294;29;20470;-87
2022/05/23 07:29:12;;;;;;;16.63;6.70;;;;;;;19.69;nan;101242.09;4839454;29;20468;-88
2022/05/23 07:31:39;;;;;;;15.70;7.20;;;;;;;19.73;nan;101254.38;4827883;29;20558;-87
2022/05/23 07:34:07;;;;;;;18.10;6.70;;;;;;;19.74;nan;101261.63;4843050;29;20475;-88
2022/05/23 07:36:35;;;;;;;19.40;7.60;;;;;;;19.72;nan;101257.41;4846706;29;20472;-88
2022/05/23 07:39:02;;;;;;;17.97;7.27;;;;;;;19.70;nan;101260.41;4862700;29;20485;-88
2022/05/23 07:41:30;;;;;;;15.93;7.53;;;;;;;19.78;nan;101271.16;4846096;29;20463;-88
2022/05/23 07:43:57;;;;;;;17.10;6.93;;;;;;;19.87;nan;101258.59;4846578;29;20463;-88
2022/05/23 07:46:25;;;;;;;14.73;7.50;;;;;;;19.87;nan;101263.28;4846432;29;20998;-88
2022/05/23 07:48:53;;;;;;;13.37;7.13;;;;;;;19.76;nan;101241.97;4853010;29;20462;-88
2022/05/23 07:51:22;;;;;;;12.20;6.27;;;;;;;19.79;nan;101258.13;4831522;29;20451;-89
2022/05/23 08:02:13;;;;;;;11.37;4.83;;;;;;;20.10;nan;101276.31;4879819;29;20469;-88
2022/05/23 08:04:42;;;;;;;11.57;4.63;;;;;;;20.01;nan;101262.78;4847710;29;20832;-88
2022/05/23 08:07:10;;;;;;;21.07;4.27;;;;;;;19.98;nan;101256.91;4862321;29;20487;-89
2022/05/23 08:09:41;;;;;;;18.57;4.60;;;;;;;19.96;nan;101276.56;4830140;29;20819;-88
2022/05/23 08:12:11;;;;;;;27.67;3.77;;;;;;;20.04;nan;101277.28;4831193;29;20443;-88
2022/05/23 08:14:40;;;;;;;19.23;4.77;;;;;;;20.08;nan;101270.16;4828778;29;20942;-88
2022/05/23 08:17:08;;;;;;;13.40;3.70;;;;;;;20.22;nan;101282.66;4862612;29;20443;-88
2022/05/23 08:19:37;;;;;;;15.23;4.33;;;;;;;20.18;nan;101281.50;4862589;29;20454;-88
2022/05/23 08:22:06;;;;;;;19.20;4.17;;;;;;;20.15;nan;101290.31;4847581;29;20526;-88
2022/05/23 08:24:34;;;;;;;12.63;3.87;;;;;;;20.11;nan;101278.00;4845234;29;20431;-88
2022/05/23 08:27:04;;;;;;;11.90;3.23;;;;;;;20.28;nan;101290.03;4803144;29;20443;-88
2022/05/23 08:29:32;;;;;;;17.10;4.30;;;;;;;20.43;nan;101282.03;4773323;29;20496;-88
2022/05/23 08:32:00;;;;;;;20.80;4.80;;;;;;;20.38;nan;101273.63;4786986;29;20971;-88
2022/05/23 08:34:27;;;;;;;21.90;3.83;;;;;;;20.51;nan;101284.44;4804864;29;20491;-88
2022/05/23 08:36:55;;;;;;;10.90;3.23;;;;;;;20.52;nan;101269.47;4789396;29;20517;-88
2022/05/23 08:39:24;;;;;;;12.13;3.53;;;;;;;20.59;nan;101292.38;4775114;29;20505;-89
2022/05/23 08:41:53;;;;;;;11.10;2.80;;;;;;;20.56;nan;101287.34;4789745;29;20462;-89
2022/05/23 08:44:39;;;;;;;15.63;3.50;;;;;;;20.70;nan;101285.09;4775198;29;21035;-89
2022/05/23 08:47:35;;;;;;;7.47;3.00;;;;;;;20.80;nan;101290.84;4804810;29;20526;-89
2022/05/23 08:50:14;;;;;;;9.93;2.37;;;;;;;20.75;nan;101284.38;4801771;29;20475;-88
2022/05/23 08:53:02;;;;;;;9.60;3.10;;;;;;;20.70;nan;101282.31;4826796;29;20938;-89
2022/05/23 08:55:33;;;;;;;10.10;2.50;;;;;;;20.69;nan;101277.88;4861040;29;20485;-89
2022/05/23 08:58:29;;;;;;;37.00;4.30;;;;;;;20.82;nan;101263.66;4845412;29;20459;-89
2022/05/23 09:01:06;;;;;;;13.00;3.50;;;;;;;20.96;nan;101281.75;4845020;29;20486;-88
2022/05/23 09:03:38;;;;;;;22.60;4.00;;;;;;;20.85;nan;101273.44;4857242;29;20463;-89
2022/05/23 09:06:31;;;;;;;14.07;3.43;;;;;;;20.94;nan;101266.41;4844622;29;20497;-89
2022/05/23 09:09:03;;;;;;;14.97;3.40;;;;;;;21.02;nan;101254.84;4846558;29;20459;-87
2022/05/23 09:11:32;;;;;;;25.50;4.13;;;;;;;21.05;nan;101259.91;4844715;29;20467;-87
2022/05/23 09:14:00;;;;;;;121.60;6.50;;;;;;;21.02;nan;101286.28;4829152;29;20958;-88
2022/05/23 09:16:53;;;;;;;84.47;7.17;;;;;;;21.11;nan;101258.94;4829426;29;20463;-88
2022/05/23 09:20:00;;;;;;;18.13;3.00;;;;;;;20.99;nan;101250.63;4854929;29;20463;-88
2022/05/23 09:22:47;;;;;;;8.93;2.63;;;;;;;20.94;nan;101247.78;4833085;29;20451;-87
2022/05/23 09:25:21;;;;;;;11.80;3.13;;;;;;;21.08;nan;101261.34;4845228;29;20911;-88
2022/05/23 09:27:53;;;;;;;21.27;5.60;;;;;;;21.15;nan;101246.22;4844187;29;20462;-88
2022/05/23 09:30:26;;;;;;;14.97;2.87;;;;;;;21.25;nan;101263.09;4829304;29;20523;-88
2022/05/23 09:32:55;;;;;;;9.70;2.80;;;;;;;21.35;nan;101241.03;4853401;29;20960;-90
2022/05/23 09:35:25;;;;;;;18.13;3.63;;;;;;;21.38;nan;101232.16;4838881;29;20526;-91
2022/05/23 09:38:16;;;;;;;10.33;3.17;;;;;;;21.48;nan;101273.22;4839808;29;20452;-87
2022/05/23 09:40:44;;;;;;;16.23;2.80;;;;;;;21.51;nan;101242.09;4842654;29;20577;-87
2022/05/23 09:49:24;;;;;;;13.50;3.30;;;;;;;21.79;nan;101232.78;4843375;29;20462;-88
2022/05/23 09:52:29;;;;;;;17.00;3.20;;;;;;;21.91;nan;101244.66;4840022;29;20451;-87
2022/05/23 09:55:09;;;;;;;11.57;3.03;;;;;;;21.99;nan;101252.56;4843472;29;20451;-88
2022/05/23 09:57:42;;;;;;;12.03;3.07;;;;;;;22.00;nan;101243.13;4829635;29;20491;-89
2022/05/23 10:00:35;;;;;;;9.73;3.50;;;;;;;22.10;nan;101236.03;4825777;29;20515;-88
2022/05/23 10:03:05;;;;;;;13.53;3.30;;;;;;;22.16;nan;101243.34;4843840;29;20458;-87
2022/05/23 10:05:42;;;;;;;15.43;3.53;;;;;;;22.21;nan;101235.91;4843518;29;20483;-87
2022/05/23 10:08:16;;;;;;;16.73;3.23;;;;;;;22.30;nan;101226.00;4814695;29;20841;-87
2022/05/23 10:10:58;;;;;;;7.90;3.00;;;;;;;22.42;nan;101233.38;4830102;29;20499;-86
2022/05/23 10:13:30;;;;;;;13.43;4.10;;;;;;;22.50;nan;101228.19;4840824;29;20823;-86
2022/05/23 10:16:00;;;;;;;10.33;3.60;;;;;;;22.55;nan;101213.44;4814635;29;20455;-86
2022/05/23 10:18:35;;;;;;;17.33;4.13;;;;;;;22.72;nan;101240.09;4820843;29;20462;-88
2022/05/23 10:21:20;;;;;;;8.97;2.83;;;;;;;22.89;nan;101233.66;4813737;29;20478;-87
2022/05/23 10:24:12;;;;;;;13.17;3.10;;;;;;;23.02;nan;101234.03;4825309;29;20456;-87
2022/05/23 10:27:29;;;;;;;14.37;3.83;;;;;;;23.04;nan;101247.72;4827319;29;20491;-88
2022/05/23 10:30:02;;;;;;;16.13;3.80;;;;;;;23.07;nan;101236.03;4858265;29;20451;-89
2022/05/23 10:32:43;;;;;;;18.80;4.00;;;;;;;23.16;nan;101234.44;4852299;29;20514;-88
2022/05/23 10:35:34;;;;;;;13.40;4.30;;;;;;;23.23;nan;101229.50;4845222;29;20970;-89
2022/05/23 10:43:53;;;;;;;16.43;5.40;;;;;;;23.13;nan;101239.69;4834744;29;20959;-87
2022/05/23 10:46:25;;;;;;;12.53;4.07;;;;;;;23.25;nan;101237.59;4845574;29;20498;-87
2022/05/23 10:49:31;;;;;;;10.87;5.00;;;;;;;23.26;nan;101233.69;4829116;29;20814;-87
2022/05/23 10:52:11;;;;;;;14.50;3.50;;;;;;;23.38;nan;101226.81;4861919;29;20451;-87
2022/05/23 10:54:58;;;;;;;16.53;4.10;;;;;;;23.47;nan;101221.59;4832655;29;20459;-88
2022/05/23 10:57:36;;;;;;;13.40;4.80;;;;;;;23.55;nan;101220.28;4836977;29;20456;-87
2022/05/23 11:00:08;;;;;;;10.47;2.97;;;;;;;23.69;nan;101221.47;4846243;29;20450;-87
2022/05/23 11:02:58;;;;;;;12.80;2.90;;;;;;;23.83;nan;101216.28;4839570;29;20531;-87
2022/05/23 11:05:25;;;;;;;10.17;2.67;;;;;;;23.72;nan;101226.53;4863179;29;20479;-88
2022/05/23 11:08:28;;;;;;;10.50;3.10;;;;;;;23.76;nan;101224.88;4861675;29;20459;-87
2022/05/23 11:11:11;;;;;;;9.60;3.50;;;;;;;23.80;nan;101228.81;4860262;29;20451;-88
2022/05/23 11:14:02;;;;;;;15.33;2.97;;;;;;;23.82;nan;101221.03;4830036;29;20464;-89
2022/05/23 11:16:33;;;;;;;11.60;3.20;;;;;;;23.94;nan;101223.59;4845934;29;20452;-87
2022/05/23 11:19:23;;;;;;;12.43;3.20;;;;;;;24.04;nan;101223.66;4846282;29;20821;-87
2022/05/23 11:22:07;;;;;;;9.80;2.60;;;;;;;24.17;nan;101222.31;4843148;29;20467;-87
2022/05/23 11:24:50;;;;;;;13.17;3.27;;;;;;;24.21;nan;101234.63;4861168;29;20957;-87
2022/05/23 11:36:24;;;;;;;10.13;3.03;;;;;;;24.28;nan;101229.63;4781960;29;20455;-85
2022/05/23 11:39:01;;;;;;;19.27;2.90;;;;;;;24.30;nan;101227.41;4779877;29;20518;-85
2022/05/23 11:41:34;;;;;;;10.93;3.10;;;;;;;24.21;nan;101241.06;4759373;30;20467;-86
2022/05/23 11:44:30;;;;;;;9.00;2.20;;;;;;;24.40;nan;101225.50;4784145;30;20495;-86
2022/05/23 11:47:14;;;;;;;9.47;2.10;;;;;;;24.48;nan;101228.88;4787378;30;21070;-85
2022/05/23 11:49:46;;;;;;;12.03;2.20;;;;;;;24.50;nan;101216.31;4787715;29;20459;-85
2022/05/23 11:52:25;;;;;;;14.10;2.13;;;;;;;24.66;nan;101229.19;4787644;30;20486;-85
2022/05/23 11:54:54;;;;;;;9.50;2.40;;;;;;;24.73;nan;101221.41;4773140;30;20461;-86
2022/05/23 11:57:40;;;;;;;13.17;2.33;;;;;;;24.74;nan;101216.66;4786432;30;20474;-85
2022/05/23 12:00:35;;;;;;;11.93;2.37;;;;;;;24.96;nan;101219.22;4769597;30;20819;-84
2022/05/23 12:03:07;;;;;;;15.43;2.80;;;;;;;24.95;nan;101218.41;4778717;29;20466;-84
2022/05/23 12:05:35;;;;;;;11.90;1.80;;;;;;;24.86;nan;101222.81;4786726;29;20498;-90
2022/05/23 12:08:07;;;;;;;14.30;2.60;;;;;;;24.83;nan;101219.72;4773363;30;20463;-85
2022/05/23 12:10:36;;;;;;;6.40;2.00;;;;;;;24.84;nan;101218.59;4786759;29;20612;-84
2022/05/23 12:13:28;;;;;;;13.30;2.28;;;;;;;24.92;nan;101234.84;4856409;29;20457;-84
2022/05/23 12:15:58;;;;;;;10.60;2.17;;;;;;;24.87;nan;101221.69;4827710;29;20225;-87
2022/05/23 12:18:28;;;;;;;8.57;2.30;;;;;;;24.76;nan;101220.00;4838329;29;20460;-85
2022/05/23 12:20:59;;;;;;;32.03;2.80;;;;;;;24.75;nan;101210.78;4852259;29;20823;-83
2022/05/23 12:23:39;;;;;;;15.00;3.00;;;;;;;24.63;nan;101199.00;4804490;29;20459;-84
2022/05/23 12:26:27;;;;;;;10.97;2.20;;;;;;;24.58;nan;101207.41;4789557;29;20938;-84
2022/05/23 12:28:59;;;;;;;11.87;1.83;;;;;;;24.67;nan;101211.31;4800323;29;20470;-85
2022/05/23 12:31:33;;;;;;;9.10;1.60;;;;;;;24.65;nan;101213.53;4789764;29;20530;-84
2022/05/23 12:34:07;;;;;;;7.93;1.80;;;;;;;24.50;nan;101193.94;4804803;29;20639;-87
2022/05/23 12:36:46;;;;;;;11.40;1.60;;;;;;;24.49;nan;101197.84;4804512;29;20492;-85
2022/05/23 12:39:40;;;;;;;9.30;1.73;;;;;;;24.57;nan;101213.25;4789955;29;20465;-85
2022/05/23 12:42:30;;;;;;;12.23;2.23;;;;;;;24.60;nan;101230.31;4835212;29;20461;-87
2022/05/23 12:45:44;;;;;;;8.53;1.73;;;;;;;24.51;nan;101201.22;4818800;29;20501;-84
2022/05/23 12:48:28;;;;;;;11.10;1.93;;;;;;;24.39;nan;101181.91;4843251;29;20958;-83
2022/05/23 12:51:10;;;;;;;14.10;1.67;;;;;;;24.44;nan;101190.28;4859217;29;20455;-85
2022/05/23 12:53:47;;;;;;;9.87;2.40;;;;;;;24.57;nan;101194.53;4855657;29;20799;-82
2022/05/23 12:56:37;;;;;;;11.57;1.43;;;;;;;24.69;nan;101192.31;4855705;29;20452;-82
2022/05/23 12:59:15;;;;;;;13.50;1.93;;;;;;;24.76;nan;101184.50;4854803;29;20451;-82
2022/05/23 13:01:43;;;;;;;12.10;1.33;;;;;;;24.71;nan;101166.88;4835945;29;20459;-84
2022/05/23 13:04:48;;;;;;;16.90;1.90;;;;;;;24.70;nan;101180.00;4829545;29;20827;-87
2022/05/23 13:07:25;;;;;;;8.43;1.27;;;;;;;24.81;nan;101182.84;4792152;29;20494;-82
2022/05/23 13:10:00;;;;;;;6.20;1.97;;;;;;;24.72;nan;101174.97;4775305;29;20461;-82